Aérodrome :
LOGIN :

S'inscrire | Disclaimer

   EN    FR    IT 

 










Légende :    VFR   VFR Marginal   IFR   IFR Intensif   IFR Très Intensif
Visi : 
Plafond : 
>= 8 km
>= 3000ft
5 à 8 km
1000 à 3000 ft
1500m à 5 km
500 à 1000 ft
800 à 1500m
200 à 500 ft
< 800m
< 200 ft
Symboles :   Orages  Brouillard  Fortes neiges  Fortes précipitations  Vent > 20 kt
SIGMETs :   Divers  Orages  Givrage  Turbulence  Onde Orograph.  Cendres Volcan.






- Altitude de l'aérodrome : 468 ft
- Code IATA : GRO


LEGE - Girona Costa Brava

DERNIER METAR :
  • 271530Z 07008KT 9999 BKN045 23/14 Q1017 NOSIG

METARs EXPIRÉS :
  • 271500Z 06006KT 020V110 9999 BKN045 24/14 Q1017 NOSIG
  • 271430Z 08004KT 350V120 9999 BKN050 24/14 Q1017 NOSIG
  • 271400Z 07007KT 9999 BKN050 23/13 Q1017 NOSIG
  • 271330Z 09006KT 030V140 9999 BKN050 24/13 Q1017 NOSIG
  • 271300Z 12001KT 9999 SCT045 BKN090 24/13 Q1017 NOSIG
  • 271230Z 11004KT 9999 BKN040 24/14 Q1018 NOSIG
  • 271200Z 09006KT 030V190 9999 BKN040 24/14 Q1018 NOSIG
  • 271130Z 08006KT 010V130 9999 SCT035 BKN045 23/14 Q1018 NOSIG

TAF TAF LEGE
Valide du 27 à 12h jusqu'au 28 à 12h UTC


271100Z 2712/2812 03009KT 9999 SCT040 TX25/2713Z TN14/2802Z
BECMG 2810/2812 18009KT



MET'MAP, la Météo Aéronautique d'un coup d'oeil ! - Copyright ORBIFLY Décembre 2007 - Disclaimer

ORBIFLY MET'MAP TEAM :

Programmation & Développement : Alexandra Zaïnal
Sur une idée originale de : Baudouin d'Aumeries
Soutien technique & logistique : Manuel Goepfert
Assistance : Marc-Olivier Méhu




SOURCES & CREDITS :

   NOAA